createdAt,value
2018-12-12T00:01:09.548Z,0.30
2018-12-12T00:03:37.721Z,0.20
2018-12-12T00:06:05.963Z,0.30
2018-12-12T00:08:34.222Z,0.30
2018-12-12T00:11:02.395Z,0.20
2018-12-12T00:13:30.552Z,0.30
2018-12-12T00:15:58.791Z,0.20
2018-12-12T00:18:26.923Z,0.20
2018-12-12T00:20:55.078Z,0.20
2018-12-12T00:23:23.236Z,0.20
2018-12-12T00:25:51.498Z,0.20
2018-12-12T00:28:19.706Z,0.10
2018-12-12T00:30:48.023Z,0.10
2018-12-12T00:33:16.235Z,0.10
2018-12-12T00:35:44.407Z,0.10
2018-12-12T00:38:12.666Z,0.10
2018-12-12T00:40:40.799Z,0.00
2018-12-12T00:43:09.484Z,0.00
2018-12-12T00:45:37.640Z,-0.10
2018-12-12T00:48:05.880Z,-0.20
2018-12-12T00:50:34.055Z,-0.30
2018-12-12T00:53:02.229Z,-0.30
2018-12-12T00:55:30.412Z,-0.30
2018-12-12T00:57:58.744Z,-0.30
2018-12-12T01:00:26.929Z,-0.40
2018-12-12T01:02:55.152Z,-0.40
2018-12-12T01:05:23.312Z,-0.40
2018-12-12T01:07:51.584Z,-0.40
2018-12-12T01:10:19.841Z,-0.50
2018-12-12T01:12:47.995Z,-0.50
2018-12-12T01:15:16.216Z,-0.50
2018-12-12T01:17:44.435Z,-0.50
2018-12-12T01:20:12.683Z,-0.50
2018-12-12T01:22:40.959Z,-0.50
2018-12-12T01:25:09.139Z,-0.50
2018-12-12T01:27:37.291Z,-0.50
2018-12-12T01:30:05.618Z,-0.60
2018-12-12T01:32:33.855Z,-0.60
2018-12-12T01:35:02.016Z,-0.60
2018-12-12T01:37:30.180Z,-0.60
2018-12-12T01:39:58.335Z,-0.60
2018-12-12T01:42:26.590Z,-0.60
2018-12-12T01:44:54.740Z,-0.70
2018-12-12T01:47:22.895Z,-0.70
2018-12-12T01:49:51.059Z,-0.70
2018-12-12T01:52:19.256Z,-0.70
2018-12-12T01:54:47.420Z,-0.70
2018-12-12T01:57:15.604Z,-0.70
2018-12-12T01:59:43.782Z,-0.70
2018-12-12T02:02:11.952Z,-0.70
2018-12-12T02:04:40.111Z,-0.70
2018-12-12T02:07:08.276Z,-0.70
2018-12-12T02:09:36.467Z,-0.70
2018-12-12T02:12:05.167Z,-0.70
2018-12-12T02:14:33.329Z,-0.70
2018-12-12T02:17:01.482Z,-0.70
2018-12-12T02:19:29.635Z,-0.70
2018-12-12T02:21:57.782Z,-0.60
2018-12-12T02:24:25.959Z,-0.70
2018-12-12T02:26:54.132Z,-0.70
2018-12-12T02:29:22.375Z,-0.60
2018-12-12T02:31:50.633Z,-0.70
2018-12-12T02:34:18.807Z,-0.70
2018-12-12T02:36:46.956Z,-0.70
2018-12-12T02:39:15.108Z,-0.70
2018-12-12T02:41:44.329Z,-0.80
2018-12-12T02:44:12.470Z,-0.80
2018-12-12T02:46:40.789Z,-0.80
2018-12-12T02:49:08.928Z,-0.70
2018-12-12T02:51:37.079Z,-0.70
2018-12-12T02:54:05.326Z,-0.70
2018-12-12T02:56:33.491Z,-0.60
2018-12-12T02:59:01.656Z,-0.50
2018-12-12T03:01:29.975Z,-0.50
2018-12-12T03:03:58.122Z,-0.40
2018-12-12T03:06:26.406Z,-0.40
2018-12-12T03:08:54.647Z,-0.40
2018-12-12T03:11:24.119Z,-0.40
2018-12-12T03:13:52.995Z,-0.40
2018-12-12T03:16:21.470Z,-0.40
2018-12-12T03:18:49.759Z,-0.40
2018-12-12T03:21:18.283Z,-0.40
2018-12-12T03:23:46.460Z,-0.40
2018-12-12T03:26:14.667Z,-0.40
2018-12-12T03:28:42.823Z,-0.40
2018-12-12T03:31:10.996Z,-0.40
2018-12-12T03:33:39.161Z,-0.30
2018-12-12T03:36:07.367Z,-0.30
2018-12-12T03:38:35.524Z,-0.40
2018-12-12T03:41:03.829Z,-0.30
2018-12-12T03:43:32.046Z,-0.30
2018-12-12T03:46:00.217Z,-0.30
2018-12-12T03:48:28.363Z,-0.30
2018-12-12T03:50:56.519Z,-0.30
2018-12-12T03:53:24.683Z,-0.30
2018-12-12T03:55:52.823Z,-0.20
2018-12-12T03:58:20.980Z,-0.30
2018-12-12T04:00:49.211Z,-0.20
2018-12-12T04:03:17.428Z,-0.20
2018-12-12T04:05:45.587Z,-0.20
2018-12-12T04:08:14.336Z,-0.20
2018-12-12T04:10:42.628Z,-0.20
2018-12-12T04:13:10.777Z,-0.20
2018-12-12T04:15:38.927Z,-0.20
2018-12-12T04:18:07.064Z,-0.20
2018-12-12T04:20:35.253Z,-0.20
2018-12-12T04:23:04.748Z,-0.20
2018-12-12T04:25:33.292Z,-0.20
2018-12-12T04:28:01.448Z,-0.10
2018-12-12T04:30:29.684Z,-0.10
2018-12-12T04:32:57.844Z,-0.10
2018-12-12T04:35:26.162Z,-0.10
2018-12-12T04:37:54.333Z,-0.10
2018-12-12T04:40:22.455Z,-0.10
2018-12-12T04:42:50.608Z,-0.10
2018-12-12T04:45:18.833Z,-0.10
2018-12-12T04:47:47.006Z,-0.10
2018-12-12T04:50:15.311Z,-0.10
2018-12-12T04:52:43.479Z,-0.10
2018-12-12T04:55:11.624Z,-0.10
2018-12-12T04:57:39.781Z,-0.10
2018-12-12T05:00:08.127Z,-0.10
2018-12-12T05:02:36.641Z,0.00
2018-12-12T05:05:05.088Z,0.00
2018-12-12T05:07:33.283Z,0.00
2018-12-12T05:10:01.452Z,-0.10
2018-12-12T05:12:29.625Z,-0.10
2018-12-12T05:14:57.892Z,-0.10
2018-12-12T05:17:26.061Z,0.00
2018-12-12T05:19:54.216Z,0.10
2018-12-12T05:22:22.384Z,0.00
2018-12-12T05:24:50.544Z,0.10
2018-12-12T05:27:18.700Z,0.00
2018-12-12T05:29:46.974Z,0.10
2018-12-12T05:32:15.118Z,0.10
2018-12-12T05:34:43.696Z,0.10
2018-12-12T05:37:11.844Z,0.10
2018-12-12T05:39:40.084Z,0.10
2018-12-12T05:42:08.252Z,0.10
2018-12-12T05:44:36.424Z,0.10
2018-12-12T05:47:04.659Z,0.20
2018-12-12T05:49:34.245Z,0.20
2018-12-12T05:52:02.768Z,0.20
2018-12-12T05:54:31.073Z,0.20
2018-12-12T05:56:59.330Z,0.30
2018-12-12T05:59:27.588Z,0.30
2018-12-12T06:01:55.809Z,0.20
2018-12-12T06:04:24.048Z,0.30
2018-12-12T06:06:52.284Z,0.30
2018-12-12T06:09:20.511Z,0.30
2018-12-12T06:11:55.346Z,0.30
2018-12-12T06:14:23.460Z,0.30
2018-12-12T06:19:34.308Z,0.30
2018-12-12T06:22:02.637Z,0.30
2018-12-12T06:24:30.845Z,0.40
2018-12-12T06:26:58.995Z,0.40
2018-12-12T06:29:27.105Z,0.40
2018-12-12T06:31:55.316Z,0.40
2018-12-12T06:34:23.533Z,0.40
2018-12-12T06:36:51.694Z,0.30
2018-12-12T06:39:19.843Z,0.30
2018-12-12T06:41:48.041Z,0.30
2018-12-12T06:44:16.207Z,0.30
2018-12-12T06:46:44.491Z,0.30
2018-12-12T06:49:12.641Z,0.30
2018-12-12T06:51:40.759Z,0.30
2018-12-12T06:54:08.931Z,0.30
2018-12-12T06:56:37.055Z,0.40
2018-12-12T06:59:05.175Z,0.40
2018-12-12T07:01:33.375Z,0.40
2018-12-12T07:04:01.525Z,0.40
2018-12-12T07:06:29.683Z,0.40
2018-12-12T07:08:57.903Z,0.50
2018-12-12T07:11:26.042Z,0.40
2018-12-12T07:13:54.184Z,0.40
2018-12-12T07:16:22.490Z,0.40
2018-12-12T07:18:50.652Z,0.40
2018-12-12T07:21:18.815Z,0.40
2018-12-12T07:23:46.977Z,0.50
2018-12-12T07:26:15.091Z,0.50
2018-12-12T07:28:44.613Z,0.50
2018-12-12T07:31:13.199Z,0.60
2018-12-12T07:33:41.343Z,0.60
2018-12-12T07:36:09.478Z,0.60
2018-12-12T07:38:37.692Z,0.70
2018-12-12T07:41:05.970Z,0.70
2018-12-12T07:43:34.127Z,0.70
2018-12-12T07:46:02.279Z,0.70
2018-12-12T07:48:30.442Z,0.70
2018-12-12T07:50:58.571Z,0.70
2018-12-12T07:53:26.745Z,0.70
2018-12-12T07:55:55.003Z,0.70
2018-12-12T07:58:23.210Z,0.70
2018-12-12T08:00:51.540Z,0.70
2018-12-12T08:03:19.704Z,0.80
2018-12-12T08:05:47.857Z,0.80
2018-12-12T08:08:15.990Z,0.80
2018-12-12T08:10:44.127Z,0.90
2018-12-12T08:13:12.292Z,0.90
2018-12-12T08:15:40.445Z,0.90
2018-12-12T08:18:08.607Z,0.90
2018-12-12T08:20:36.745Z,1.00
2018-12-12T08:23:05.096Z,1.00
2018-12-12T08:25:33.653Z,1.00
2018-12-12T08:28:01.849Z,1.00
2018-12-12T08:30:30.007Z,1.00
2018-12-12T08:32:58.240Z,1.00
2018-12-12T08:35:26.382Z,1.00
2018-12-12T08:37:54.552Z,1.00
2018-12-12T08:40:22.763Z,0.90
2018-12-12T08:42:50.912Z,0.90
2018-12-12T08:45:19.171Z,0.90
2018-12-12T08:47:47.317Z,0.90
2018-12-12T08:50:15.448Z,0.90
2018-12-12T08:52:43.604Z,0.90
2018-12-12T08:55:17.496Z,1.00
2018-12-12T08:57:41.893Z,1.00
2018-12-12T09:00:10.196Z,1.10
2018-12-12T09:02:38.397Z,1.10
2018-12-12T09:05:06.665Z,1.20
2018-12-12T09:07:34.902Z,1.20
2018-12-12T09:10:03.283Z,1.30
2018-12-12T09:12:31.452Z,1.30
2018-12-12T09:14:59.680Z,1.30
2018-12-12T09:17:27.831Z,1.40
2018-12-12T09:19:55.983Z,1.30
2018-12-12T09:22:24.109Z,1.30
2018-12-12T09:24:52.236Z,1.30
2018-12-12T09:27:20.392Z,1.40
2018-12-12T09:29:48.564Z,1.50
2018-12-12T09:32:16.740Z,1.40
2018-12-12T09:34:44.932Z,1.40
2018-12-12T09:37:13.134Z,1.50
2018-12-12T09:39:41.280Z,1.60
2018-12-12T09:42:09.444Z,1.70
2018-12-12T09:44:37.664Z,1.70
2018-12-12T09:47:05.895Z,1.70
2018-12-12T09:49:34.031Z,1.70
2018-12-12T09:52:02.155Z,1.60
2018-12-12T09:54:30.400Z,1.60
2018-12-12T09:56:58.560Z,1.60
2018-12-12T09:59:26.691Z,1.60
2018-12-12T10:01:54.836Z,1.60
2018-12-12T10:04:23.000Z,1.70
2018-12-12T10:06:51.151Z,1.70
2018-12-12T10:09:19.284Z,1.70
2018-12-12T10:11:47.507Z,1.80
2018-12-12T10:14:15.647Z,1.80
2018-12-12T10:16:43.877Z,1.70
2018-12-12T10:19:12.054Z,1.70
2018-12-12T10:21:40.308Z,1.80
2018-12-12T10:24:08.519Z,1.80
2018-12-12T10:26:36.773Z,1.80
2018-12-12T10:29:04.952Z,1.80
2018-12-12T10:31:33.114Z,1.80
2018-12-12T10:34:01.297Z,1.80
2018-12-12T10:36:29.485Z,1.80
2018-12-12T10:38:57.660Z,1.80
2018-12-12T10:41:25.924Z,1.90
2018-12-12T10:43:54.103Z,1.90
2018-12-12T10:46:22.282Z,2.00
2018-12-12T10:48:50.445Z,2.00
2018-12-12T10:51:18.613Z,2.00
2018-12-12T10:53:46.772Z,2.10
2018-12-12T10:56:14.987Z,2.10
2018-12-12T10:58:43.256Z,2.10
2018-12-12T11:01:16.920Z,2.10
2018-12-12T11:03:45.121Z,2.10
2018-12-12T11:06:13.296Z,2.10
2018-12-12T11:08:41.628Z,2.10
2018-12-12T11:11:09.847Z,2.20
2018-12-12T11:13:38.029Z,2.20
2018-12-12T11:16:06.725Z,2.10
2018-12-12T11:18:34.965Z,2.10
2018-12-12T11:21:03.210Z,2.10
2018-12-12T11:23:31.376Z,2.10
2018-12-12T11:25:59.532Z,2.20
2018-12-12T11:28:27.710Z,2.30
2018-12-12T11:30:55.969Z,2.30
2018-12-12T11:33:24.185Z,2.40
2018-12-12T11:35:52.331Z,2.50
2018-12-12T11:38:20.491Z,2.60
2018-12-12T11:40:48.633Z,2.60
2018-12-12T11:43:16.918Z,2.60
2018-12-12T11:45:45.182Z,2.70
2018-12-12T11:48:13.315Z,2.80
2018-12-12T11:50:41.556Z,2.80
2018-12-12T11:53:09.690Z,2.80
2018-12-12T11:55:37.929Z,2.80
2018-12-12T11:58:06.085Z,3.00
2018-12-12T12:00:34.256Z,3.10
2018-12-12T12:03:02.411Z,3.20
2018-12-12T12:05:30.612Z,3.30
2018-12-12T12:07:58.876Z,3.40
2018-12-12T12:10:27.027Z,3.40
2018-12-12T12:12:55.260Z,3.40
2018-12-12T12:15:23.433Z,3.50
2018-12-12T12:17:51.585Z,3.40
2018-12-12T12:20:19.847Z,3.50
2018-12-12T12:22:48.307Z,3.50
2018-12-12T12:25:16.532Z,3.40
2018-12-12T12:27:44.792Z,3.40
2018-12-12T12:30:13.051Z,3.50
2018-12-12T12:32:41.243Z,3.50
2018-12-12T12:35:09.971Z,3.60
2018-12-12T12:37:38.174Z,3.50
2018-12-12T12:40:06.795Z,3.50
2018-12-12T12:42:34.954Z,3.60
2018-12-12T12:45:03.287Z,3.50
2018-12-12T12:47:31.419Z,3.50
2018-12-12T12:49:59.596Z,3.60
2018-12-12T12:52:27.829Z,3.60
2018-12-12T12:54:56.008Z,3.70
2018-12-12T12:57:24.306Z,3.60
2018-12-12T12:59:52.459Z,3.60
2018-12-12T13:02:21.006Z,3.50
2018-12-12T13:04:49.236Z,3.60
2018-12-12T13:07:17.377Z,3.50
2018-12-12T13:09:45.525Z,3.50
2018-12-12T13:12:13.896Z,3.50
2018-12-12T13:14:42.184Z,3.50
2018-12-12T13:17:10.351Z,3.40
2018-12-12T13:19:38.541Z,3.40
2018-12-12T13:22:06.699Z,3.40
2018-12-12T13:24:34.908Z,3.40
2018-12-12T13:27:03.136Z,3.40
2018-12-12T13:29:31.395Z,3.40
2018-12-12T13:31:59.687Z,3.40
2018-12-12T13:34:27.913Z,3.40
2018-12-12T13:36:56.076Z,3.40
2018-12-12T13:39:24.252Z,3.30
2018-12-12T13:41:52.429Z,3.40
2018-12-12T13:44:20.613Z,3.30
2018-12-12T13:46:48.817Z,3.40
2018-12-12T13:49:17.136Z,3.40
2018-12-12T13:51:45.454Z,3.30
2018-12-12T13:54:13.645Z,3.30
2018-12-12T13:56:42.976Z,3.30
2018-12-12T13:59:11.156Z,3.30
2018-12-12T14:01:39.352Z,3.30
2018-12-12T14:04:07.528Z,3.30
2018-12-12T14:06:35.702Z,3.30
2018-12-12T14:09:05.256Z,3.30
2018-12-12T14:11:33.443Z,3.40
2018-12-12T14:14:01.604Z,3.40
2018-12-12T14:16:29.855Z,3.40
2018-12-12T14:18:58.020Z,3.30
2018-12-12T14:21:26.371Z,3.30
2018-12-12T14:23:54.516Z,3.30
2018-12-12T14:26:22.688Z,3.40
2018-12-12T14:28:51.006Z,3.40
2018-12-12T14:31:19.203Z,3.40
2018-12-12T14:33:47.385Z,3.40
2018-12-12T14:36:15.527Z,3.40
2018-12-12T14:38:43.672Z,3.40
2018-12-12T14:41:11.896Z,3.40
2018-12-12T14:43:40.051Z,3.30
2018-12-12T14:46:08.226Z,3.30
2018-12-12T14:48:36.380Z,3.40
2018-12-12T14:51:04.687Z,3.40
2018-12-12T14:53:32.834Z,3.40
2018-12-12T14:56:01.004Z,3.30
2018-12-12T14:58:29.167Z,3.30
2018-12-12T15:00:57.455Z,3.20
2018-12-12T15:03:25.608Z,3.20
2018-12-12T15:05:53.783Z,3.10
2018-12-12T15:08:21.952Z,3.10
2018-12-12T15:10:50.103Z,3.10
2018-12-12T15:13:18.256Z,3.10
2018-12-12T15:15:46.395Z,3.10
2018-12-12T15:18:14.556Z,3.00
2018-12-12T15:20:42.725Z,3.00
2018-12-12T15:23:10.864Z,3.10
2018-12-12T15:25:39.056Z,3.10
2018-12-12T15:28:07.189Z,3.10
2018-12-12T15:30:35.442Z,3.10
2018-12-12T15:33:03.595Z,3.10
2018-12-12T15:35:31.753Z,3.00
2018-12-12T15:38:01.387Z,3.10
2018-12-12T15:40:29.804Z,3.00
2018-12-12T15:42:57.931Z,3.00
2018-12-12T15:45:26.144Z,3.00
2018-12-12T15:47:54.287Z,3.00
2018-12-12T15:50:22.439Z,3.10
2018-12-12T15:52:50.585Z,3.00
2018-12-12T15:55:18.807Z,3.00
2018-12-12T15:57:46.975Z,3.00
2018-12-12T16:00:16.444Z,2.90
2018-12-12T16:02:45.704Z,2.90
2018-12-12T16:05:13.942Z,2.90
2018-12-12T16:07:42.095Z,2.80
2018-12-12T16:10:10.256Z,2.80
2018-12-12T16:12:38.424Z,2.80
2018-12-12T16:15:06.729Z,2.80
2018-12-12T16:17:34.939Z,2.80
2018-12-12T16:20:03.344Z,2.90
2018-12-12T16:22:31.524Z,2.90
2018-12-12T16:24:59.763Z,2.90
2018-12-12T16:27:28.404Z,2.90
2018-12-12T16:29:56.668Z,2.80
2018-12-12T16:32:24.836Z,2.80
2018-12-12T16:34:55.786Z,2.80
2018-12-12T16:37:23.176Z,2.80
2018-12-12T16:39:51.406Z,2.80
2018-12-12T16:42:19.564Z,2.80
2018-12-12T16:44:47.977Z,2.80
2018-12-12T16:47:16.182Z,2.80
2018-12-12T16:49:44.444Z,2.70
2018-12-12T16:52:13.044Z,2.80
2018-12-12T16:54:41.270Z,2.80
2018-12-12T16:57:23.899Z,2.80
2018-12-12T16:59:53.128Z,2.70
2018-12-12T17:02:22.484Z,2.70
2018-12-12T17:05:02.257Z,2.70
2018-12-12T17:07:42.482Z,2.70
2018-12-12T17:10:21.450Z,2.70
2018-12-12T17:13:00.167Z,2.70
2018-12-12T17:15:30.881Z,2.70
2018-12-12T17:18:00.954Z,2.70
2018-12-12T17:20:32.783Z,2.70
2018-12-12T17:23:10.151Z,2.70
2018-12-12T17:25:39.582Z,2.60
2018-12-12T17:28:07.950Z,2.60
2018-12-12T17:30:36.640Z,2.60
2018-12-12T17:33:04.928Z,2.60
2018-12-12T17:35:33.305Z,2.60
2018-12-12T17:38:01.783Z,2.70
2018-12-12T17:40:30.361Z,2.80
2018-12-12T17:42:58.587Z,2.80
2018-12-12T17:45:26.857Z,2.70
2018-12-12T17:47:55.217Z,2.70
2018-12-12T17:50:23.427Z,2.70
2018-12-12T17:52:51.712Z,2.70
2018-12-12T17:55:19.913Z,2.70
2018-12-12T17:57:48.311Z,2.70
2018-12-12T18:00:16.805Z,2.70
2018-12-12T18:02:45.124Z,2.70
2018-12-12T18:05:15.410Z,2.70
2018-12-12T18:08:03.824Z,2.60
2018-12-12T18:37:01.063Z,2.40
2018-12-12T18:39:29.278Z,2.40
2018-12-12T18:41:57.588Z,2.40
2018-12-12T18:44:38.850Z,2.40
2018-12-12T18:47:07.647Z,2.40
2018-12-12T18:49:36.361Z,2.40
2018-12-12T18:52:04.978Z,2.40
2018-12-12T18:54:33.541Z,2.40
2018-12-12T18:57:02.233Z,2.40
2018-12-12T19:05:18.305Z,2.40
2018-12-12T19:07:46.811Z,2.50
2018-12-12T19:10:15.251Z,2.60
2018-12-12T19:15:36.287Z,2.60
2018-12-12T19:18:04.600Z,2.50
2018-12-12T19:20:32.768Z,2.50
2018-12-12T19:23:11.720Z,2.50
2018-12-12T19:25:40.740Z,2.40
2018-12-12T19:28:09.710Z,2.40
2018-12-12T19:30:38.371Z,2.40
2018-12-12T19:33:06.987Z,2.30
2018-12-12T19:35:44.789Z,2.30
2018-12-12T20:09:25.909Z,2.60
2018-12-12T20:14:36.546Z,2.40
2018-12-12T20:17:04.908Z,2.40
2018-12-12T20:19:33.372Z,2.40
2018-12-12T20:22:01.592Z,2.40
2018-12-12T20:24:29.760Z,2.40
2018-12-12T20:26:57.972Z,2.40
2018-12-12T20:29:26.223Z,2.40
2018-12-12T20:31:55.606Z,2.40
2018-12-12T20:34:23.805Z,2.40
2018-12-12T20:36:52.019Z,2.40
2018-12-12T20:39:21.201Z,2.40
2018-12-12T20:41:49.364Z,2.40
2018-12-12T20:44:17.543Z,2.40
2018-12-12T20:46:45.795Z,2.30
2018-12-12T20:49:13.984Z,2.40
2018-12-12T20:51:42.178Z,2.30
2018-12-12T20:54:10.408Z,2.40
2018-12-12T20:56:38.580Z,2.30
2018-12-12T20:59:06.860Z,2.30
2018-12-12T21:01:35.026Z,2.40
2018-12-12T21:04:03.213Z,2.40
2018-12-12T21:06:31.444Z,2.40
2018-12-12T21:08:59.640Z,2.40
2018-12-12T21:11:27.810Z,2.30
2018-12-12T21:13:55.967Z,2.30
2018-12-12T21:16:24.142Z,2.30
2018-12-12T21:18:52.799Z,2.30
2018-12-12T21:21:20.951Z,2.30
2018-12-12T21:23:50.168Z,2.30
2018-12-12T21:26:19.090Z,2.30
2018-12-12T21:28:47.238Z,2.20
2018-12-12T21:31:15.405Z,2.20
2018-12-12T21:33:44.643Z,2.20
2018-12-12T21:36:12.828Z,2.30
2018-12-12T21:38:41.057Z,2.40
2018-12-12T21:41:09.224Z,2.40
2018-12-12T21:43:37.418Z,2.40
2018-12-12T21:46:05.652Z,2.40
2018-12-12T21:48:33.842Z,2.40
2018-12-12T21:51:02.028Z,2.40
2018-12-12T21:53:32.174Z,2.30
2018-12-12T21:56:06.006Z,2.30
2018-12-12T21:58:41.631Z,2.30
2018-12-12T22:01:15.461Z,2.30
2018-12-12T22:03:52.724Z,2.20
2018-12-12T22:11:54.005Z,2.20
2018-12-12T22:14:27.773Z,2.10
2018-12-12T22:17:06.869Z,2.10
2018-12-12T22:19:47.447Z,2.10
2018-12-12T22:22:24.450Z,2.10
2018-12-12T22:24:56.073Z,2.00
2018-12-12T22:27:32.262Z,1.90
2018-12-12T22:30:08.675Z,1.80
2018-12-12T22:32:44.762Z,1.80
2018-12-12T22:35:19.859Z,1.80
2018-12-12T22:38:00.154Z,1.70
2018-12-12T22:40:36.889Z,1.70
2018-12-12T22:43:12.024Z,1.60
2018-12-12T22:45:47.101Z,1.60
2018-12-12T22:48:21.174Z,1.60
2018-12-12T22:50:54.319Z,1.50
2018-12-12T22:53:26.278Z,1.50
2018-12-12T22:56:10.827Z,1.40
2018-12-12T22:58:54.566Z,1.40
2018-12-12T23:01:34.960Z,1.30
2018-12-12T23:04:13.352Z,1.30
2018-12-12T23:06:54.545Z,1.20
2018-12-12T23:12:18.463Z,1.10
2018-12-12T23:14:53.150Z,1.10
2018-12-12T23:17:36.024Z,1.10
2018-12-12T23:20:14.885Z,1.10
2018-12-12T23:23:02.514Z,1.00
2018-12-12T23:25:36.678Z,1.00
2018-12-12T23:28:13.607Z,1.00
2018-12-12T23:30:54.234Z,1.00
2018-12-12T23:33:32.280Z,0.90
2018-12-12T23:36:14.897Z,0.90
2018-12-12T23:38:47.060Z,0.90
2018-12-12T23:41:23.875Z,0.90
2018-12-12T23:44:05.976Z,0.80
2018-12-12T23:46:40.296Z,0.80
2018-12-12T23:49:18.091Z,0.80
2018-12-12T23:51:50.315Z,0.70
2018-12-12T23:54:20.753Z,0.70
2018-12-12T23:56:51.382Z,0.70
2018-12-12T23:59:20.797Z,0.70
